Time;durP1;ratioP1;P1;durP2;ratioP2;P2;SDS_P1;SDS_P2;PMS_P1;PMS_P2;Temp;Humidity;BMP_temperature;BMP_pressure;BME280_temperature;BME280_humidity;BME280_pressure;Samples;Min_cycle;Max_cycle;Signal;HPM_P1;HPM_P2
2024/01/19 00:01:57;;;;;;;0.50;0.50;;;-2.90;99.90;;;;;;4415710;32;21668;-80
2024/01/19 00:04:23;;;;;;;0.70;0.70;;;-3.00;99.90;;;;;;4412511;32;20081;-79
2024/01/19 00:06:48;;;;;;;0.50;0.50;;;-2.90;99.90;;;;;;4411711;32;20086;-79
2024/01/19 00:09:14;;;;;;;0.50;0.50;;;-2.80;99.90;;;;;;4411578;32;20077;-79
2024/01/19 00:11:39;;;;;;;0.60;0.60;;;-2.80;99.90;;;;;;4411361;32;20745;-79
2024/01/19 00:14:05;;;;;;;1.33;1.23;;;-2.80;99.90;;;;;;4411264;32;20086;-79
2024/01/19 00:16:30;;;;;;;0.50;0.50;;;-2.80;99.90;;;;;;4410101;32;20093;-79
2024/01/19 00:18:57;;;;;;;0.50;0.50;;;-2.80;99.90;;;;;;4413480;32;20648;-79
2024/01/19 00:21:23;;;;;;;0.47;0.47;;;-2.80;99.90;;;;;;4415367;32;20086;-79
2024/01/19 00:23:49;;;;;;;0.40;0.40;;;-2.70;99.90;;;;;;4413512;32;20072;-78
2024/01/19 00:26:15;;;;;;;0.60;0.60;;;-2.80;99.90;;;;;;4412876;32;20549;-79
2024/01/19 00:28:40;;;;;;;0.50;0.50;;;-2.80;99.90;;;;;;4410541;32;20136;-78
2024/01/19 00:31:06;;;;;;;0.40;0.40;;;-2.80;99.90;;;;;;4412446;32;20451;-79
2024/01/19 00:33:32;;;;;;;0.88;0.88;;;-2.80;99.90;;;;;;4412060;32;20085;-79
2024/01/19 00:35:57;;;;;;;0.50;0.50;;;-2.90;99.90;;;;;;4410101;32;20070;-78
2024/01/19 00:38:22;;;;;;;2.55;0.90;;;-2.90;99.90;;;;;;4406974;32;20450;-78
2024/01/19 00:40:48;;;;;;;0.47;0.47;;;-3.00;99.90;;;;;;4409103;32;20090;-79
2024/01/19 00:43:13;;;;;;;0.40;0.40;;;-3.00;99.90;;;;;;4411519;32;20136;-79
2024/01/19 00:45:39;;;;;;;0.77;0.77;;;-3.00;99.90;;;;;;4410752;32;20066;-79
2024/01/19 00:48:04;;;;;;;0.60;0.60;;;-3.00;99.90;;;;;;4410758;32;20225;-79
2024/01/19 00:50:30;;;;;;;0.52;0.52;;;-3.00;99.90;;;;;;4411978;32;20579;-80
2024/01/19 00:52:55;;;;;;;0.50;0.50;;;-3.10;99.90;;;;;;4411715;32;20065;-80
2024/01/19 00:55:21;;;;;;;0.65;0.65;;;-3.30;99.90;;;;;;4411824;32;20440;-80
2024/01/19 00:57:46;;;;;;;0.50;0.50;;;-3.40;99.90;;;;;;4414458;32;20521;-80
2024/01/19 01:00:12;;;;;;;0.55;0.55;;;-3.50;99.90;;;;;;4412200;32;20540;-80
2024/01/19 01:02:38;;;;;;;0.70;0.70;;;-3.50;99.90;;;;;;4412332;32;20560;-80
2024/01/19 01:05:04;;;;;;;0.75;0.75;;;-3.50;99.90;;;;;;4410532;32;20115;-80
2024/01/19 01:07:31;;;;;;;3.83;1.23;;;-3.50;99.90;;;;;;4411956;32;20140;-80
2024/01/19 01:09:56;;;;;;;0.65;0.65;;;-3.50;99.90;;;;;;4411101;32;20073;-81
2024/01/19 01:12:22;;;;;;;0.60;0.57;;;-3.60;99.90;;;;;;4411883;32;20081;-80
2024/01/19 01:14:47;;;;;;;0.60;0.60;;;-3.80;99.90;;;;;;4408164;32;21173;-79
2024/01/19 01:17:13;;;;;;;0.40;0.40;;;-3.80;99.90;;;;;;4412757;32;20090;-78
2024/01/19 01:19:38;;;;;;;0.40;0.40;;;-3.80;99.90;;;;;;4414732;32;20131;-78
2024/01/19 01:22:05;;;;;;;0.40;0.40;;;-4.00;99.90;;;;;;4414012;32;20639;-79
2024/01/19 01:24:31;;;;;;;0.40;0.40;;;-3.80;99.90;;;;;;4413933;32;20652;-79
2024/01/19 01:26:57;;;;;;;0.50;0.50;;;-3.80;99.90;;;;;;4416301;32;20128;-79
2024/01/19 01:29:22;;;;;;;3.20;1.15;;;-3.80;99.90;;;;;;4413848;32;20064;-78
2024/01/19 01:31:50;;;;;;;0.40;0.40;;;-3.90;99.90;;;;;;4416103;32;20418;-79
2024/01/19 01:34:16;;;;;;;0.40;0.40;;;-3.80;99.90;;;;;;4412707;32;20061;-79
2024/01/19 01:36:42;;;;;;;1.15;1.12;;;-3.90;99.90;;;;;;4414188;32;21161;-80
2024/01/19 01:39:07;;;;;;;0.40;0.40;;;-3.90;99.90;;;;;;4414098;32;21139;-80
2024/01/19 01:41:33;;;;;;;0.60;0.60;;;-3.90;99.90;;;;;;4415352;32;20686;-80
2024/01/19 01:43:59;;;;;;;0.60;0.60;;;-3.90;99.90;;;;;;4414250;32;20077;-79
2024/01/19 01:46:24;;;;;;;2.72;1.95;;;-4.00;99.90;;;;;;4416967;32;20057;-80
2024/01/19 01:48:51;;;;;;;0.50;0.50;;;-3.90;99.90;;;;;;4417382;32;20057;-80
2024/01/19 01:51:17;;;;;;;0.40;0.40;;;-3.80;99.90;;;;;;4412248;32;20081;-80
2024/01/19 01:53:43;;;;;;;0.85;0.85;;;-3.70;99.90;;;;;;4412617;32;20078;-78
2024/01/19 01:56:09;;;;;;;0.50;0.50;;;-3.60;99.90;;;;;;4417247;32;20069;-78
2024/01/19 01:58:34;;;;;;;0.82;0.82;;;-3.50;99.90;;;;;;4415368;32;20500;-78
2024/01/19 02:01:00;;;;;;;0.73;0.73;;;-3.60;99.90;;;;;;4416905;32;20591;-80
2024/01/19 02:03:26;;;;;;;0.40;0.40;;;-3.60;99.90;;;;;;4414411;32;20482;-80
2024/01/19 02:05:51;;;;;;;0.40;0.40;;;-3.70;99.90;;;;;;4415411;32;20090;-80
2024/01/19 02:08:17;;;;;;;0.50;0.50;;;-3.60;99.90;;;;;;4415471;32;20475;-80
2024/01/19 02:10:42;;;;;;;0.62;0.62;;;-3.50;99.90;;;;;;4415351;32;20441;-80
2024/01/19 02:13:08;;;;;;;0.40;0.40;;;-3.40;99.90;;;;;;4414517;32;20190;-80
2024/01/19 02:15:35;;;;;;;0.62;0.60;;;-3.40;99.90;;;;;;4414021;32;20264;-80
2024/01/19 02:18:01;;;;;;;0.90;0.90;;;-3.40;99.90;;;;;;4413186;32;20124;-80
2024/01/19 02:20:26;;;;;;;0.60;0.60;;;-3.30;99.90;;;;;;4411520;32;20141;-80
2024/01/19 02:22:52;;;;;;;0.88;0.82;;;-3.30;99.90;;;;;;4413667;32;20112;-80
2024/01/19 02:25:18;;;;;;;0.50;0.50;;;-3.20;99.90;;;;;;4413875;32;20323;-80
2024/01/19 02:27:44;;;;;;;0.82;0.82;;;-3.10;99.90;;;;;;4414003;32;20089;-80
2024/01/19 02:30:10;;;;;;;0.77;0.77;;;-3.20;99.90;;;;;;4412913;32;20460;-79
2024/01/19 02:32:36;;;;;;;0.60;0.60;;;-3.10;99.90;;;;;;4413835;32;20211;-80
2024/01/19 02:35:02;;;;;;;0.40;0.40;;;-3.20;99.90;;;;;;4414873;32;20262;-79
2024/01/19 02:37:27;;;;;;;1.15;1.15;;;-3.20;99.90;;;;;;4411384;32;20089;-79
2024/01/19 02:39:53;;;;;;;1.08;1.00;;;-3.20;99.90;;;;;;4416113;32;20069;-78
2024/01/19 02:42:19;;;;;;;0.40;0.40;;;-3.10;99.90;;;;;;4412933;32;20070;-79
2024/01/19 02:44:44;;;;;;;0.55;0.55;;;-3.10;99.90;;;;;;4412866;32;20123;-79
2024/01/19 02:47:10;;;;;;;2.10;1.33;;;-3.20;99.90;;;;;;4411979;32;20701;-79
2024/01/19 02:49:35;;;;;;;0.40;0.40;;;-3.20;99.90;;;;;;4412130;32;20094;-78
2024/01/19 02:52:01;;;;;;;0.40;0.40;;;-3.10;99.90;;;;;;4414823;32;20054;-79
2024/01/19 02:54:27;;;;;;;0.40;0.40;;;-3.10;99.90;;;;;;4411184;32;20509;-78
2024/01/19 02:56:53;;;;;;;0.50;0.50;;;-3.10;99.90;;;;;;4411262;32;20073;-79
2024/01/19 02:59:18;;;;;;;0.70;0.70;;;-3.10;99.90;;;;;;4413439;32;20077;-79
2024/01/19 03:04:10;;;;;;;1.80;1.67;;;-3.10;99.90;;;;;;4416846;32;20093;-79
2024/01/19 03:06:35;;;;;;;0.52;0.52;;;-3.30;99.90;;;;;;4412953;32;20589;-79
2024/01/19 03:09:01;;;;;;;0.40;0.40;;;-3.30;99.90;;;;;;4412651;32;20082;-78
2024/01/19 03:11:26;;;;;;;0.50;0.50;;;-3.40;99.90;;;;;;4415207;32;20069;-80
2024/01/19 03:13:53;;;;;;;0.50;0.50;;;-3.40;99.90;;;;;;4411116;32;20454;-79
2024/01/19 03:16:19;;;;;;;3.60;1.67;;;-3.40;99.90;;;;;;4413440;32;20069;-80
2024/01/19 03:18:44;;;;;;;0.50;0.50;;;-3.40;99.90;;;;;;4412687;32;20127;-81
2024/01/19 03:21:10;;;;;;;0.57;0.57;;;-3.30;99.90;;;;;;4414823;32;20106;-81
2024/01/19 03:23:36;;;;;;;0.50;0.50;;;-3.30;99.90;;;;;;4409933;32;20189;-80
2024/01/19 03:26:02;;;;;;;0.62;0.62;;;-3.20;99.90;;;;;;4413767;32;20093;-80
2024/01/19 03:28:27;;;;;;;0.40;0.40;;;-3.20;99.90;;;;;;4415028;32;20090;-80
2024/01/19 03:30:53;;;;;;;1.30;1.10;;;-3.10;99.90;;;;;;4411448;32;20509;-80
2024/01/19 03:33:18;;;;;;;0.40;0.40;;;-3.10;99.90;;;;;;4410734;32;20086;-80
2024/01/19 03:35:44;;;;;;;0.47;0.47;;;-2.90;99.90;;;;;;4414726;32;20058;-79
2024/01/19 03:38:09;;;;;;;0.95;0.88;;;-2.90;99.90;;;;;;4411777;32;20498;-80
2024/01/19 03:40:35;;;;;;;0.40;0.40;;;-2.90;99.90;;;;;;4410858;32;20081;-81
2024/01/19 03:43:00;;;;;;;0.40;0.40;;;-2.90;99.90;;;;;;4415867;32;20371;-79
2024/01/19 03:45:25;;;;;;;0.60;0.60;;;-2.90;99.90;;;;;;4412396;32;20073;-79
2024/01/19 03:47:51;;;;;;;0.68;0.68;;;-2.80;99.90;;;;;;4412737;32;20061;-79
2024/01/19 03:50:16;;;;;;;0.40;0.40;;;-2.80;99.90;;;;;;4412100;32;20061;-80
2024/01/19 03:52:44;;;;;;;0.50;0.50;;;-2.80;99.90;;;;;;4412135;32;20522;-81
2024/01/19 03:55:10;;;;;;;0.50;0.50;;;-2.80;99.90;;;;;;4415017;32;20909;-80
2024/01/19 03:57:35;;;;;;;0.30;0.30;;;-2.70;99.90;;;;;;4413060;32;20066;-80
2024/01/19 04:00:01;;;;;;;0.52;0.52;;;-2.80;99.90;;;;;;4412267;32;20062;-81
2024/01/19 04:02:26;;;;;;;1.55;1.25;;;-2.70;99.90;;;;;;4413973;32;20506;-78
2024/01/19 04:04:52;;;;;;;1.25;1.10;;;-2.70;99.90;;;;;;4409294;32;20085;-78
2024/01/19 04:07:17;;;;;;;0.45;0.45;;;-2.60;99.90;;;;;;4413963;32;20076;-79
2024/01/19 04:09:43;;;;;;;1.83;1.73;;;-2.60;99.90;;;;;;4411713;32;20488;-79
2024/01/19 04:12:14;;;;;;;0.40;0.40;;;-2.60;99.90;;;;;;4411458;32;20073;-79
2024/01/19 04:14:41;;;;;;;0.40;0.40;;;-2.60;99.90;;;;;;4415333;32;20086;-80
2024/01/19 04:17:07;;;;;;;0.50;0.50;;;-2.50;99.90;;;;;;4414589;32;20231;-79
2024/01/19 04:19:33;;;;;;;0.60;0.60;;;-2.40;99.90;;;;;;4413231;32;20081;-80
2024/01/19 04:21:59;;;;;;;0.50;0.50;;;-2.40;99.90;;;;;;4413400;32;20085;-79
2024/01/19 04:24:25;;;;;;;0.40;0.40;;;-2.40;99.90;;;;;;4413702;32;20451;-78
2024/01/19 04:26:50;;;;;;;0.40;0.40;;;-2.40;99.90;;;;;;4412225;32;20090;-78
2024/01/19 04:29:16;;;;;;;0.40;0.40;;;-2.30;99.90;;;;;;4411681;32;20089;-78
2024/01/19 04:31:41;;;;;;;1.65;1.50;;;-2.30;99.90;;;;;;4412973;32;20081;-79
2024/01/19 04:34:07;;;;;;;0.40;0.40;;;-2.30;99.90;;;;;;4411689;32;20106;-78
2024/01/19 04:36:33;;;;;;;0.85;0.85;;;-2.20;99.90;;;;;;4410664;32;20097;-78
2024/01/19 04:38:59;;;;;;;0.70;0.70;;;-2.30;99.90;;;;;;4411416;32;20086;-77
2024/01/19 04:41:24;;;;;;;0.50;0.50;;;-2.40;99.90;;;;;;4412109;32;20541;-78
2024/01/19 04:43:50;;;;;;;0.40;0.40;;;-2.40;99.90;;;;;;4410539;32;20136;-78
2024/01/19 04:46:16;;;;;;;1.12;1.02;;;-2.40;99.90;;;;;;4413813;32;20093;-78
2024/01/19 04:48:42;;;;;;;0.40;0.40;;;-2.50;99.90;;;;;;4411221;32;20062;-78
2024/01/19 04:51:07;;;;;;;0.50;0.50;;;-2.60;99.90;;;;;;4414044;32;20102;-79
2024/01/19 04:53:33;;;;;;;0.88;0.88;;;-2.60;99.90;;;;;;4413778;32;20139;-78
2024/01/19 04:55:58;;;;;;;0.52;0.52;;;-2.70;99.90;;;;;;4410255;32;20069;-78
2024/01/19 04:58:24;;;;;;;10.23;3.25;;;-2.60;99.90;;;;;;4416520;32;20070;-78
2024/01/19 05:00:49;;;;;;;0.45;0.45;;;-2.70;99.90;;;;;;4413100;32;20120;-79
2024/01/19 05:03:16;;;;;;;5.07;2.92;;;-2.50;99.90;;;;;;4411620;32;20081;-78
2024/01/19 05:05:41;;;;;;;0.40;0.40;;;-2.40;99.90;;;;;;4410383;32;20132;-79
2024/01/19 05:08:08;;;;;;;0.50;0.50;;;-2.40;99.90;;;;;;4414690;32;20786;-81
2024/01/19 05:10:34;;;;;;;0.50;0.50;;;-2.50;99.90;;;;;;4410440;32;20074;-79
2024/01/19 05:12:59;;;;;;;0.80;0.80;;;-2.50;99.90;;;;;;4411739;32;20065;-79
2024/01/19 05:15:25;;;;;;;0.62;0.62;;;-2.50;99.90;;;;;;4413160;32;20426;-79
2024/01/19 05:17:51;;;;;;;0.75;0.75;;;-2.50;99.90;;;;;;4392619;32;20116;-77
2024/01/19 05:20:18;;;;;;;0.40;0.40;;;-2.40;99.90;;;;;;4392785;32;20430;-77
2024/01/19 05:22:46;;;;;;;1.60;1.50;;;-2.40;99.90;;;;;;4402012;32;20431;-78
2024/01/19 05:25:12;;;;;;;0.50;0.50;;;-2.50;99.90;;;;;;4413151;32;20147;-78
2024/01/19 05:27:37;;;;;;;9.70;1.10;;;-2.40;99.90;;;;;;4409690;32;20077;-80
2024/01/19 05:30:03;;;;;;;0.50;0.50;;;-2.50;99.90;;;;;;4412047;32;20099;-79
2024/01/19 05:32:29;;;;;;;0.50;0.50;;;-2.50;99.90;;;;;;4411583;32;21216;-79
2024/01/19 05:34:58;;;;;;;0.50;0.50;;;-2.40;99.90;;;;;;4411233;32;20077;-79
2024/01/19 05:37:26;;;;;;;0.50;0.50;;;-2.30;99.90;;;;;;4408985;32;20136;-77
2024/01/19 05:39:52;;;;;;;0.40;0.40;;;-2.40;99.90;;;;;;4409082;32;20090;-77
2024/01/19 05:42:17;;;;;;;0.50;0.50;;;-2.50;99.90;;;;;;4412659;32;20120;-81
2024/01/19 05:44:45;;;;;;;0.57;0.57;;;-2.60;99.90;;;;;;4411320;32;20106;-81
2024/01/19 05:47:10;;;;;;;0.43;0.43;;;-2.60;99.90;;;;;;4414100;32;20065;-81
2024/01/19 05:49:36;;;;;;;1.48;0.65;;;-2.60;99.90;;;;;;4414671;32;20074;-81
2024/01/19 05:52:01;;;;;;;0.43;0.43;;;-2.60;99.90;;;;;;4404188;32;20407;-80
2024/01/19 05:54:27;;;;;;;1.25;0.60;;;-2.60;99.90;;;;;;4408795;32;20106;-80
2024/01/19 05:56:52;;;;;;;0.50;0.50;;;-2.70;99.90;;;;;;4409786;32;20094;-80
2024/01/19 05:59:18;;;;;;;0.40;0.40;;;-2.70;99.90;;;;;;4407548;32;20524;-79
2024/01/19 06:04:10;;;;;;;0.50;0.50;;;-2.70;99.90;;;;;;4397221;32;20133;-79
2024/01/19 06:06:36;;;;;;;0.50;0.50;;;-2.60;99.90;;;;;;4390272;32;20091;-81
2024/01/19 06:09:02;;;;;;;0.50;0.50;;;-2.60;99.90;;;;;;4404328;32;20392;-80
2024/01/19 06:11:28;;;;;;;0.62;0.62;;;-2.70;99.90;;;;;;4414832;32;20085;-80
2024/01/19 06:13:55;;;;;;;0.40;0.40;;;-2.60;99.90;;;;;;4402165;32;20475;-79
2024/01/19 06:16:20;;;;;;;0.40;0.40;;;-2.50;99.90;;;;;;4414400;32;20120;-79
2024/01/19 06:18:46;;;;;;;0.50;0.50;;;-2.50;99.90;;;;;;4412499;32;20148;-80
2024/01/19 06:21:12;;;;;;;0.40;0.40;;;-2.50;99.90;;;;;;4399062;32;20115;-79
2024/01/19 06:23:38;;;;;;;0.40;0.40;;;-2.50;99.90;;;;;;4411554;32;20550;-79
2024/01/19 06:26:11;;;;;;;0.50;0.50;;;-2.50;99.90;;;;;;4390774;32;20549;-78
2024/01/19 06:28:41;;;;;;;0.50;0.50;;;-2.50;99.90;;;;;;4395693;32;20101;-78
2024/01/19 06:31:08;;;;;;;0.50;0.50;;;-2.40;99.90;;;;;;4406175;32;20509;-78
2024/01/19 06:33:34;;;;;;;0.40;0.40;;;-2.50;99.90;;;;;;4403911;32;20090;-81
2024/01/19 06:36:00;;;;;;;0.95;0.95;;;-2.50;99.90;;;;;;4405476;32;20066;-79
2024/01/19 06:38:26;;;;;;;0.45;0.45;;;-2.50;99.90;;;;;;4405746;32;20102;-79
2024/01/19 06:40:51;;;;;;;0.50;0.50;;;-2.40;99.90;;;;;;4406355;32;20483;-79
2024/01/19 06:43:18;;;;;;;0.68;0.68;;;-2.30;99.90;;;;;;4395800;32;20098;-80
2024/01/19 06:45:47;;;;;;;0.40;0.40;;;-2.20;99.90;;;;;;4398139;32;20191;-81
2024/01/19 06:48:13;;;;;;;0.40;0.40;;;-2.20;99.90;;;;;;4395802;32;20484;-80
2024/01/19 06:50:39;;;;;;;0.40;0.40;;;-2.10;99.90;;;;;;4389515;32;20171;-80
2024/01/19 06:53:06;;;;;;;0.40;0.40;;;-1.90;99.90;;;;;;4395216;32;20144;-78
2024/01/19 06:55:32;;;;;;;0.50;0.50;;;-1.80;99.90;;;;;;4387938;32;20100;-79
2024/01/19 06:57:57;;;;;;;0.40;0.40;;;-1.60;99.90;;;;;;4380743;32;20749;-78
2024/01/19 07:00:23;;;;;;;0.40;0.40;;;-1.50;99.90;;;;;;4377414;32;20683;-79
2024/01/19 07:02:50;;;;;;;0.60;0.60;;;-1.40;99.90;;;;;;4383421;32;20118;-79
2024/01/19 07:05:16;;;;;;;0.40;0.40;;;-1.30;99.90;;;;;;4389371;32;20098;-80
2024/01/19 07:07:41;;;;;;;0.40;0.40;;;-1.20;99.90;;;;;;4379234;32;20144;-77
2024/01/19 07:10:07;;;;;;;0.40;0.40;;;-1.20;99.90;;;;;;4374709;32;20704;-77
2024/01/19 07:12:34;;;;;;;2.12;1.87;;;-1.10;99.90;;;;;;4381236;32;20105;-77
2024/01/19 07:14:59;;;;;;;0.50;0.50;;;-1.00;99.90;;;;;;4383793;32;20113;-78
2024/01/19 07:17:25;;;;;;;1.65;1.52;;;-1.00;99.90;;;;;;4386270;32;20133;-77
2024/01/19 07:19:50;;;;;;;0.50;0.50;;;-1.00;99.90;;;;;;4388758;32;20617;-77
2024/01/19 07:22:17;;;;;;;1.52;1.42;;;-1.00;99.90;;;;;;4381736;32;20114;-78
2024/01/19 07:24:43;;;;;;;0.40;0.40;;;-0.90;99.90;;;;;;4398681;32;20074;-79
2024/01/19 07:27:10;;;;;;;0.60;0.60;;;-0.90;99.90;;;;;;4393613;32;20188;-80
2024/01/19 07:29:35;;;;;;;0.60;0.60;;;-0.90;99.90;;;;;;4385906;32;20098;-78
2024/01/19 07:32:01;;;;;;;0.40;0.40;;;-0.90;99.90;;;;;;4387818;32;20089;-78
2024/01/19 07:34:26;;;;;;;0.40;0.40;;;-0.80;99.90;;;;;;4386114;32;20105;-79
2024/01/19 07:36:52;;;;;;;0.82;0.82;;;-0.80;99.90;;;;;;4389718;32;20109;-78
2024/01/19 07:39:23;;;;;;;0.40;0.40;;;-0.80;99.90;;;;;;4389075;32;20069;-78
2024/01/19 07:41:51;;;;;;;0.40;0.40;;;-0.70;99.90;;;;;;4393694;32;20065;-78
2024/01/19 07:44:17;;;;;;;0.40;0.40;;;-0.70;99.90;;;;;;4382292;32;20200;-79
2024/01/19 07:46:43;;;;;;;0.40;0.40;;;-0.70;99.90;;;;;;4393716;32;20155;-79
2024/01/19 07:49:09;;;;;;;0.68;0.68;;;-0.70;99.90;;;;;;4379181;32;21617;-79
2024/01/19 07:51:35;;;;;;;0.47;0.47;;;-0.60;99.90;;;;;;4385036;32;20089;-78
2024/01/19 07:54:00;;;;;;;0.40;0.40;;;-0.60;99.90;;;;;;4378828;32;20082;-80
2024/01/19 07:56:26;;;;;;;0.40;0.40;;;-0.60;99.90;;;;;;4390164;32;20594;-79
2024/01/19 07:58:51;;;;;;;0.40;0.40;;;-0.50;99.90;;;;;;4380498;32;24804;-81
2024/01/19 08:01:17;;;;;;;0.40;0.40;;;-0.50;99.90;;;;;;4386933;32;20090;-79
2024/01/19 08:03:44;;;;;;;0.40;0.40;;;-0.40;99.90;;;;;;4383400;32;20892;-79
2024/01/19 08:06:12;;;;;;;0.40;0.40;;;-0.40;99.90;;;;;;4385318;32;20469;-79
2024/01/19 08:08:40;;;;;;;0.50;0.50;;;-0.30;99.90;;;;;;4393264;32;20424;-78
2024/01/19 08:11:05;;;;;;;0.50;0.50;;;-0.30;99.90;;;;;;4388994;32;20082;-81
2024/01/19 08:13:32;;;;;;;0.40;0.40;;;-0.30;99.90;;;;;;4378744;32;20544;-78
2024/01/19 08:15:59;;;;;;;0.40;0.40;;;-0.20;99.90;;;;;;4374955;32;20152;-80
2024/01/19 08:18:24;;;;;;;0.40;0.40;;;-0.20;99.90;;;;;;4377162;32;20169;-79
2024/01/19 08:20:50;;;;;;;0.37;0.37;;;-0.20;99.90;;;;;;4387603;32;20130;-80
2024/01/19 08:23:22;;;;;;;0.40;0.40;;;-0.30;99.90;;;;;;4382210;32;20078;-79
2024/01/19 08:25:47;;;;;;;0.52;0.52;;;-0.30;99.90;;;;;;4385187;32;20082;-80
2024/01/19 08:28:13;;;;;;;0.40;0.40;;;-0.40;99.90;;;;;;4388374;32;20932;-80
2024/01/19 08:30:38;;;;;;;0.40;0.40;;;-0.30;99.90;;;;;;4385927;32;20597;-79
2024/01/19 08:33:04;;;;;;;0.40;0.40;;;-0.30;99.90;;;;;;4378569;32;20171;-79
2024/01/19 08:35:30;;;;;;;0.50;0.50;;;-0.20;99.90;;;;;;4370889;32;20101;-79
2024/01/19 08:37:56;;;;;;;0.40;0.40;;;-0.10;99.90;;;;;;4360886;32;20102;-76
2024/01/19 08:40:21;;;;;;;0.40;0.40;;;0.00;99.90;;;;;;4372900;32;20158;-77
2024/01/19 08:42:47;;;;;;;1.45;1.00;;;0.10;99.90;;;;;;4371631;32;21978;-77
2024/01/19 08:45:12;;;;;;;0.30;0.30;;;0.20;99.90;;;;;;4372019;32;20555;-78
2024/01/19 08:47:38;;;;;;;0.50;0.50;;;0.20;99.90;;;;;;4372989;32;20513;-77
2024/01/19 08:50:05;;;;;;;0.50;0.50;;;0.30;99.90;;;;;;4378467;32;20257;-77
2024/01/19 08:52:30;;;;;;;0.65;0.65;;;0.30;99.90;;;;;;4376983;32;20077;-77
2024/01/19 08:54:56;;;;;;;0.40;0.40;;;0.30;99.90;;;;;;4382764;32;20089;-77
2024/01/19 08:57:23;;;;;;;0.40;0.40;;;0.40;99.90;;;;;;4382495;32;20718;-76
2024/01/19 08:59:49;;;;;;;0.40;0.40;;;0.40;99.90;;;;;;4385821;32;20089;-76
2024/01/19 09:02:15;;;;;;;0.70;0.70;;;0.40;99.90;;;;;;4378369;32;20197;-77
2024/01/19 09:04:41;;;;;;;0.40;0.40;;;0.40;99.90;;;;;;4379222;32;20086;-79
2024/01/19 09:07:07;;;;;;;0.60;0.60;;;0.50;99.90;;;;;;4363669;32;20453;-79
2024/01/19 09:09:32;;;;;;;0.77;0.77;;;0.50;99.90;;;;;;4378264;32;20114;-77
2024/01/19 09:11:58;;;;;;;0.88;0.88;;;0.60;99.90;;;;;;4371017;32;20768;-78
2024/01/19 09:14:26;;;;;;;0.40;0.40;;;0.70;99.90;;;;;;4364035;32;20399;-78
2024/01/19 09:16:52;;;;;;;1.27;0.70;;;0.80;99.90;;;;;;4358290;32;20106;-79
2024/01/19 09:19:20;;;;;;;0.40;0.40;;;0.90;99.90;;;;;;4383027;32;21539;-75
2024/01/19 09:21:47;;;;;;;0.50;0.50;;;0.90;99.90;;;;;;4371622;32;21200;-75
2024/01/19 09:24:13;;;;;;;0.40;0.40;;;0.90;99.90;;;;;;4358194;32;20096;-77
2024/01/19 09:26:39;;;;;;;0.70;0.70;;;0.90;99.90;;;;;;4367263;32;20161;-78
2024/01/19 09:29:08;;;;;;;0.40;0.40;;;1.00;99.90;;;;;;4375423;32;20727;-79
2024/01/19 09:31:33;;;;;;;0.50;0.50;;;1.10;99.90;;;;;;4378410;32;20513;-78
2024/01/19 09:34:02;;;;;;;0.40;0.40;;;1.10;99.90;;;;;;4379348;32;20096;-77
2024/01/19 09:36:28;;;;;;;2.95;1.70;;;1.20;99.90;;;;;;4378607;32;20271;-78
2024/01/19 09:38:53;;;;;;;0.40;0.40;;;1.20;99.90;;;;;;4374678;32;20489;-78
2024/01/19 09:41:45;;;;;;;0.40;0.40;;;1.30;99.90;;;;;;4371097;32;20077;-82
2024/01/19 09:44:12;;;;;;;0.75;0.75;;;1.30;99.90;;;;;;4366328;32;20798;-75
2024/01/19 09:46:51;;;;;;;0.40;0.40;;;1.40;99.90;;;;;;4382753;32;20101;-77
2024/01/19 09:49:44;;;;;;;1.80;1.23;;;1.40;99.90;;;;;;4387736;32;20110;-76
2024/01/19 09:52:38;;;;;;;0.40;0.40;;;1.40;99.90;;;;;;4371187;32;20106;-76
2024/01/19 09:55:04;;;;;;;0.47;0.47;;;1.60;99.90;;;;;;4368281;32;20663;-77
2024/01/19 09:57:32;;;;;;;0.40;0.40;;;1.60;99.90;;;;;;4378425;32;20082;-78
2024/01/19 09:59:57;;;;;;;0.60;0.60;;;1.60;99.90;;;;;;4383544;32;20098;-78
2024/01/19 10:02:27;;;;;;;1.65;1.33;;;1.60;99.90;;;;;;4387911;32;20085;-79
2024/01/19 10:04:53;;;;;;;0.40;0.40;;;1.70;99.90;;;;;;4392824;32;20315;-77
2024/01/19 10:07:22;;;;;;;0.57;0.57;;;1.80;99.90;;;;;;4392963;32;20170;-77
2024/01/19 10:09:51;;;;;;;59.00;1.62;;;1.90;99.90;;;;;;4399068;32;20152;-76
2024/01/19 10:12:20;;;;;;;0.47;0.47;;;2.00;99.90;;;;;;4391234;32;20078;-75
2024/01/19 10:14:46;;;;;;;0.40;0.40;;;2.00;99.90;;;;;;4394389;32;20098;-77
2024/01/19 10:17:14;;;;;;;0.37;0.37;;;2.00;99.90;;;;;;4393999;32;20070;-77
2024/01/19 10:19:40;;;;;;;0.40;0.40;;;2.00;99.90;;;;;;4396307;32;20086;-76
2024/01/19 10:22:26;;;;;;;0.40;0.40;;;2.00;99.90;;;;;;4397861;32;20073;-76
2024/01/19 10:25:17;;;;;;;0.40;0.40;;;2.10;99.90;;;;;;4383209;32;20198;-77
2024/01/19 10:27:51;;;;;;;7.32;1.37;;;2.20;99.90;;;;;;4376490;32;20530;-76
2024/01/19 10:30:26;;;;;;;0.40;0.40;;;2.00;99.90;;;;;;4381844;32;20222;-75
2024/01/19 10:32:53;;;;;;;0.50;0.50;;;2.00;99.90;;;;;;4376648;32;20695;-79
2024/01/19 10:35:22;;;;;;;0.98;0.95;;;2.10;99.90;;;;;;4379279;32;20097;-76
2024/01/19 10:37:48;;;;;;;1.25;0.93;;;2.10;99.90;;;;;;4384229;32;20074;-77
2024/01/19 10:40:24;;;;;;;0.40;0.40;;;2.20;99.90;;;;;;4397893;32;20605;-77
2024/01/19 10:42:53;;;;;;;0.40;0.40;;;2.30;99.90;;;;;;4389293;32;20471;-76
2024/01/19 10:45:24;;;;;;;0.40;0.40;;;2.30;99.90;;;;;;4386088;32;20130;-75
2024/01/19 10:47:52;;;;;;;0.45;0.45;;;2.30;99.90;;;;;;4392713;32;20792;-75
2024/01/19 10:50:19;;;;;;;0.98;0.88;;;2.40;99.90;;;;;;4396903;32;20077;-75
2024/01/19 10:52:47;;;;;;;1.70;0.98;;;2.50;99.90;;;;;;4384102;32;20195;-74
2024/01/19 10:55:22;;;;;;;0.77;0.77;;;2.50;99.90;;;;;;4373876;32;21012;-75
2024/01/19 10:57:53;;;;;;;0.40;0.40;;;2.60;99.90;;;;;;4380168;32;20074;-76
2024/01/19 11:00:21;;;;;;;0.35;0.35;;;2.70;99.90;;;;;;4375649;32;20518;-76
2024/01/19 11:02:48;;;;;;;0.77;0.75;;;2.50;99.90;;;;;;4371799;32;20545;-76
2024/01/19 11:05:17;;;;;;;0.62;0.62;;;2.60;99.90;;;;;;4369532;32;20176;-76
2024/01/19 11:07:42;;;;;;;0.40;0.40;;;2.80;99.90;;;;;;4367111;32;20097;-75
2024/01/19 11:10:08;;;;;;;0.70;0.70;;;2.80;99.90;;;;;;4381013;32;20723;-76
2024/01/19 11:12:38;;;;;;;2.15;1.12;;;2.80;99.90;;;;;;4381631;32;20093;-77
2024/01/19 11:15:09;;;;;;;0.50;0.50;;;2.80;99.90;;;;;;4382385;32;20093;-76
2024/01/19 11:17:34;;;;;;;0.77;0.77;;;3.10;99.90;;;;;;4388839;32;20077;-75
2024/01/19 11:20:00;;;;;;;0.60;0.60;;;3.20;99.90;;;;;;4390046;32;20126;-75
2024/01/19 11:22:28;;;;;;;0.43;0.43;;;3.30;99.90;;;;;;4385949;32;20123;-75
2024/01/19 11:25:01;;;;;;;0.60;0.60;;;3.40;99.90;;;;;;4386041;32;20098;-75
2024/01/19 11:27:32;;;;;;;0.50;0.50;;;3.40;99.90;;;;;;4388304;32;20086;-75
2024/01/19 11:30:13;;;;;;;0.50;0.50;;;3.20;99.90;;;;;;4386062;32;20210;-76
2024/01/19 11:32:39;;;;;;;1.42;0.88;;;3.30;99.90;;;;;;4372748;32;21646;-75
2024/01/19 11:35:06;;;;;;;0.50;0.50;;;3.40;99.90;;;;;;4370759;32;20086;-76
2024/01/19 11:37:47;;;;;;;0.50;0.50;;;3.40;99.90;;;;;;4386556;32;20106;-76
2024/01/19 11:40:32;;;;;;;0.40;0.40;;;3.40;99.90;;;;;;4361135;32;20175;-75
2024/01/19 11:42:57;;;;;;;0.52;0.52;;;3.40;99.90;;;;;;4384557;32;20081;-76
2024/01/19 11:45:42;;;;;;;0.40;0.40;;;3.60;99.90;;;;;;4375277;32;20541;-75
2024/01/19 11:48:08;;;;;;;0.40;0.40;;;3.70;99.90;;;;;;4385502;32;20634;-75
2024/01/19 11:50:43;;;;;;;0.30;0.30;;;3.70;99.90;;;;;;4371339;32;20093;-75
2024/01/19 11:53:09;;;;;;;0.50;0.50;;;3.70;99.90;;;;;;4384017;32;108282;-76
2024/01/19 11:55:36;;;;;;;0.45;0.45;;;3.80;99.90;;;;;;4392156;32;20093;-76
2024/01/19 11:58:24;;;;;;;0.57;0.57;;;3.90;99.90;;;;;;4390855;32;20090;-77
2024/01/19 12:00:50;;;;;;;0.30;0.30;;;4.00;99.90;;;;;;4379595;32;20061;-76
2024/01/19 12:03:15;;;;;;;4.37;0.90;;;4.30;99.90;;;;;;4392589;32;20098;-76
2024/01/19 12:05:42;;;;;;;0.60;0.60;;;4.50;99.90;;;;;;4398440;32;20111;-77
2024/01/19 12:08:11;;;;;;;0.37;0.37;;;4.60;99.90;;;;;;4394513;32;20132;-77
2024/01/19 12:10:36;;;;;;;0.40;0.40;;;4.80;99.90;;;;;;4396993;32;20094;-75
2024/01/19 12:13:02;;;;;;;0.55;0.55;;;4.90;99.90;;;;;;4390655;32;20077;-74
2024/01/19 12:15:28;;;;;;;1.80;1.58;;;5.10;99.90;;;;;;4389624;32;20085;-75
2024/01/19 12:17:54;;;;;;;0.60;0.60;;;5.30;99.90;;;;;;4396697;32;20073;-71
2024/01/19 12:20:20;;;;;;;0.30;0.30;;;5.30;99.90;;;;;;4376240;32;20706;-72
2024/01/19 12:22:50;;;;;;;0.98;0.40;;;5.20;99.90;;;;;;4392751;32;20090;-75
2024/01/19 12:25:17;;;;;;;;;;;5.20;99.90;;;;;;4390742;32;20870;-71
2024/01/19 12:27:44;;;;;;;0.30;0.30;;;5.00;99.90;;;;;;4374865;32;20404;-74
2024/01/19 12:30:11;;;;;;;1.25;0.70;;;5.00;99.90;;;;;;4393776;32;20585;-74
2024/01/19 12:32:37;;;;;;;0.40;0.40;;;5.30;99.90;;;;;;4390492;32;20117;-77
2024/01/19 12:35:03;;;;;;;0.30;0.30;;;5.40;99.90;;;;;;4385928;32;20089;-75
2024/01/19 12:37:29;;;;;;;0.30;0.30;;;5.50;99.90;;;;;;4396015;32;20070;-75
2024/01/19 12:40:11;;;;;;;0.70;0.70;;;5.70;99.90;;;;;;4390128;32;20077;-75
2024/01/19 12:42:36;;;;;;;0.45;0.40;;;5.60;99.90;;;;;;4395542;32;20086;-77
2024/01/19 12:45:03;;;;;;;0.40;0.40;;;5.90;99.90;;;;;;4393886;32;20431;-76
2024/01/19 12:47:28;;;;;;;0.30;0.30;;;5.60;99.90;;;;;;4398526;32;20390;-76
2024/01/19 12:49:57;;;;;;;0.37;0.37;;;5.80;99.90;;;;;;4393730;32;20862;-76
2024/01/19 12:52:23;;;;;;;2.65;0.73;;;5.70;99.90;;;;;;4394968;32;20062;-76
2024/01/19 12:54:49;;;;;;;0.73;0.73;;;5.10;99.90;;;;;;4395478;32;20074;-74